createdAt,value
2023-01-17T00:01:53.949Z,5.77
2023-01-17T00:04:39.200Z,5.83
2023-01-17T00:07:24.488Z,5.86
2023-01-17T00:09:56.736Z,5.85
2023-01-17T00:12:26.115Z,5.87
2023-01-17T00:14:56.393Z,5.82
2023-01-17T00:17:24.840Z,5.80
2023-01-17T00:20:10.265Z,5.76
2023-01-17T00:22:56.016Z,5.76
2023-01-17T00:25:44.088Z,5.69
2023-01-17T00:28:10.669Z,5.58
2023-01-17T00:30:38.801Z,5.52
2023-01-17T00:33:05.817Z,5.48
2023-01-17T00:35:33.277Z,5.44
2023-01-17T00:38:04.832Z,5.44
2023-01-17T00:40:31.609Z,5.41
2023-01-17T00:43:16.785Z,5.38
2023-01-17T00:46:04.858Z,5.38
2023-01-17T00:48:50.188Z,5.40
2023-01-17T00:51:35.920Z,5.38
2023-01-17T00:54:21.645Z,5.35
2023-01-17T00:57:06.800Z,5.32
2023-01-17T00:59:51.704Z,5.31
2023-01-17T01:02:38.497Z,5.24
2023-01-17T01:05:24.095Z,5.27
2023-01-17T01:08:09.185Z,5.28
2023-01-17T01:10:54.283Z,5.27
2023-01-17T01:13:41.882Z,5.30
2023-01-17T01:16:26.987Z,5.29
2023-01-17T01:19:13.634Z,5.27
2023-01-17T01:21:58.649Z,5.21
2023-01-17T01:24:44.179Z,5.19
2023-01-17T01:27:29.435Z,5.13
2023-01-17T01:30:14.695Z,5.09
2023-01-17T01:32:59.764Z,5.05
2023-01-17T01:35:29.034Z,5.04
2023-01-17T01:37:56.815Z,4.99
2023-01-17T01:40:24.481Z,4.97
2023-01-17T01:42:53.603Z,4.94
2023-01-17T01:45:22.751Z,5.00
2023-01-17T01:47:51.520Z,4.98
2023-01-17T01:50:21.414Z,5.06
2023-01-17T01:52:54.507Z,5.03
2023-01-17T01:55:24.649Z,5.01
2023-01-17T01:57:53.889Z,4.95
2023-01-17T02:00:24.897Z,4.97
2023-01-17T02:02:54.339Z,4.95
2023-01-17T02:05:23.915Z,4.92
2023-01-17T02:07:55.898Z,4.90
2023-01-17T02:10:24.092Z,4.91
2023-01-17T02:12:53.182Z,4.82
2023-01-17T02:15:22.566Z,4.71
2023-01-17T02:17:58.749Z,4.59
2023-01-17T02:20:39.284Z,4.45
2023-01-17T02:23:44.221Z,4.38
2023-01-17T02:26:43.382Z,4.29
2023-01-17T02:29:43.536Z,4.24
2023-01-17T02:32:16.136Z,4.22
2023-01-17T02:34:48.108Z,4.16
2023-01-17T02:37:19.102Z,4.11
2023-01-17T02:39:52.016Z,4.07
2023-01-17T02:42:20.866Z,4.01
2023-01-17T02:44:48.539Z,4.03
2023-01-17T02:47:25.753Z,4.05
2023-01-17T02:49:54.157Z,4.01
2023-01-17T02:52:32.359Z,4.01
2023-01-17T02:55:16.644Z,4.01
2023-01-17T02:57:57.766Z,4.03
2023-01-17T03:00:29.056Z,4.02
2023-01-17T03:03:04.190Z,4.03
2023-01-17T03:05:36.285Z,4.07
2023-01-17T03:08:04.596Z,4.12
2023-01-17T03:10:33.961Z,4.16
2023-01-17T03:13:02.446Z,4.19
2023-01-17T03:15:30.391Z,4.22
2023-01-17T03:18:01.811Z,4.23
2023-01-17T03:20:29.458Z,4.24
2023-01-17T03:22:57.189Z,4.25
2023-01-17T03:25:24.823Z,4.24
2023-01-17T03:27:52.504Z,4.25
2023-01-17T03:30:21.853Z,4.28
2023-01-17T03:32:49.670Z,4.27
2023-01-17T03:35:18.807Z,4.31
2023-01-17T03:37:46.523Z,4.27
2023-01-17T03:40:14.315Z,4.24
2023-01-17T03:42:42.733Z,4.23
2023-01-17T03:45:11.207Z,4.25
2023-01-17T03:47:38.956Z,4.29
2023-01-17T03:50:07.475Z,4.31
2023-01-17T03:52:36.669Z,4.35
2023-01-17T03:55:04.464Z,4.38
2023-01-17T03:57:32.210Z,4.36
2023-01-17T03:59:59.925Z,4.35
2023-01-17T04:02:27.638Z,4.33
2023-01-17T04:04:55.364Z,4.33
2023-01-17T04:07:23.665Z,4.31
2023-01-17T04:09:52.694Z,4.30
2023-01-17T04:12:20.467Z,4.30
2023-01-17T04:14:48.715Z,4.31
2023-01-17T04:17:17.915Z,4.33
2023-01-17T04:19:45.637Z,4.40
2023-01-17T04:22:13.430Z,4.44
2023-01-17T04:24:41.192Z,4.45
2023-01-17T04:27:14.232Z,4.42
2023-01-17T04:29:41.954Z,4.43
2023-01-17T04:32:09.901Z,4.44
2023-01-17T04:34:37.677Z,4.39
2023-01-17T04:37:05.400Z,4.35
2023-01-17T04:39:33.128Z,4.32
2023-01-17T04:42:00.814Z,4.34
2023-01-17T04:44:29.902Z,4.37
2023-01-17T04:46:57.703Z,4.39
2023-01-17T04:49:25.482Z,4.38
2023-01-17T04:51:53.224Z,4.39
2023-01-17T04:54:20.887Z,4.38
2023-01-17T04:56:48.962Z,4.35
2023-01-17T04:59:16.697Z,4.39
2023-01-17T05:01:45.843Z,4.42
2023-01-17T05:04:13.699Z,4.41
2023-01-17T05:06:41.477Z,4.42
2023-01-17T05:09:09.292Z,4.41
2023-01-17T05:11:37.053Z,4.36
2023-01-17T05:14:07.951Z,4.37
2023-01-17T05:16:35.695Z,4.33
2023-01-17T05:19:04.855Z,4.28
2023-01-17T05:21:32.561Z,4.28
2023-01-17T05:24:00.377Z,4.26
2023-01-17T05:26:28.132Z,4.23
2023-01-17T05:28:55.837Z,4.19
2023-01-17T05:31:23.523Z,4.21
2023-01-17T05:33:51.225Z,4.19
2023-01-17T05:36:21.222Z,4.17
2023-01-17T05:38:49.073Z,4.17
2023-01-17T05:41:16.823Z,4.15
2023-01-17T05:43:44.533Z,4.09
2023-01-17T05:46:12.340Z,4.07
2023-01-17T05:48:40.108Z,4.06
2023-01-17T05:51:07.840Z,4.05
2023-01-17T05:53:36.961Z,4.09
2023-01-17T05:56:04.862Z,4.14
2023-01-17T05:58:32.537Z,4.15
2023-01-17T06:01:00.285Z,4.16
2023-01-17T06:03:28.100Z,4.18
2023-01-17T06:05:55.813Z,4.20
2023-01-17T06:08:23.613Z,4.17
2023-01-17T06:10:52.693Z,4.17
2023-01-17T06:13:21.879Z,4.13
2023-01-17T06:15:49.826Z,4.10
2023-01-17T06:18:19.736Z,4.08
2023-01-17T06:20:48.712Z,4.01
2023-01-17T06:23:16.415Z,3.94
2023-01-17T06:25:45.296Z,3.89
2023-01-17T06:28:15.633Z,3.86
2023-01-17T06:30:43.909Z,3.83
2023-01-17T06:33:11.922Z,3.78
2023-01-17T06:35:40.914Z,3.78
2023-01-17T06:38:10.004Z,3.77
2023-01-17T06:40:37.701Z,3.77
2023-01-17T06:43:06.484Z,3.76
2023-01-17T06:45:36.583Z,3.76
2023-01-17T06:48:05.279Z,3.73
2023-01-17T06:50:33.648Z,3.75
2023-01-17T06:53:02.876Z,3.74
2023-01-17T06:55:33.666Z,3.71
2023-01-17T06:58:02.866Z,3.66
2023-01-17T07:00:31.749Z,3.59
2023-01-17T07:03:01.117Z,3.59
2023-01-17T07:05:29.058Z,3.61
2023-01-17T07:07:56.758Z,3.61
2023-01-17T07:10:24.460Z,3.53
2023-01-17T07:12:52.462Z,3.52
2023-01-17T07:15:20.189Z,3.51
2023-01-17T07:17:48.011Z,3.48
2023-01-17T07:20:18.588Z,3.48
2023-01-17T07:22:46.591Z,3.49
2023-01-17T07:25:14.394Z,3.44
2023-01-17T07:27:42.091Z,3.43
2023-01-17T07:30:11.139Z,3.45
2023-01-17T07:32:38.875Z,3.46
2023-01-17T07:35:07.558Z,3.48
2023-01-17T07:37:36.617Z,3.48
2023-01-17T07:40:04.927Z,3.50
2023-01-17T07:42:32.584Z,3.52
2023-01-17T07:45:00.646Z,3.51
2023-01-17T07:47:28.291Z,3.49
2023-01-17T07:49:56.176Z,3.50
2023-01-17T07:52:23.927Z,3.53
2023-01-17T07:54:53.148Z,3.48
2023-01-17T07:57:20.866Z,3.48
2023-01-17T07:59:50.931Z,3.46
2023-01-17T08:02:20.324Z,3.45
2023-01-17T08:04:48.864Z,3.49
2023-01-17T08:07:17.365Z,3.49
2023-01-17T08:09:49.709Z,3.52
2023-01-17T08:12:18.955Z,3.50
2023-01-17T08:14:46.685Z,3.51
2023-01-17T08:17:17.145Z,3.48
2023-01-17T08:19:45.229Z,3.49
2023-01-17T08:22:13.298Z,3.51
2023-01-17T08:24:41.929Z,3.52
2023-01-17T08:27:09.987Z,3.52
2023-01-17T08:29:42.125Z,3.53
2023-01-17T08:32:09.907Z,3.52
2023-01-17T08:34:37.574Z,3.55
2023-01-17T08:37:05.324Z,3.53
2023-01-17T08:39:33.052Z,3.52
2023-01-17T08:42:00.813Z,3.57
2023-01-17T08:44:28.509Z,3.54
2023-01-17T08:46:57.609Z,3.52
2023-01-17T08:49:25.665Z,3.49
2023-01-17T08:51:53.393Z,3.51
2023-01-17T08:54:22.892Z,3.50
2023-01-17T08:56:52.807Z,3.53
2023-01-17T08:59:20.793Z,3.55
2023-01-17T09:01:48.556Z,3.57
2023-01-17T09:04:17.764Z,3.56
2023-01-17T09:06:48.193Z,3.51
2023-01-17T09:09:17.198Z,3.53
2023-01-17T09:11:44.949Z,3.50
2023-01-17T09:14:13.416Z,3.49
2023-01-17T09:16:41.201Z,3.51
2023-01-17T09:19:09.671Z,3.53
2023-01-17T09:21:38.900Z,3.53
2023-01-17T09:24:07.154Z,3.52
2023-01-17T09:26:34.964Z,3.52
2023-01-17T09:29:02.689Z,3.52
2023-01-17T09:31:30.453Z,3.59
2023-01-17T09:33:59.020Z,3.53
2023-01-17T09:36:28.763Z,3.61
2023-01-17T09:38:58.955Z,3.66
2023-01-17T09:41:28.894Z,3.68
2023-01-17T09:44:01.050Z,3.70
2023-01-17T09:46:31.323Z,3.71
2023-01-17T09:49:04.900Z,3.74
2023-01-17T09:51:32.880Z,3.79
2023-01-17T09:54:02.757Z,3.78
2023-01-17T09:56:33.620Z,3.82
2023-01-17T09:59:21.436Z,3.82
2023-01-17T10:01:55.605Z,3.74
2023-01-17T10:04:41.442Z,3.74
2023-01-17T10:07:16.461Z,3.76
2023-01-17T10:09:55.079Z,3.83
2023-01-17T10:12:28.889Z,3.86
2023-01-17T10:15:14.695Z,3.93
2023-01-17T10:17:51.758Z,3.97
2023-01-17T10:20:40.783Z,3.96
2023-01-17T10:23:22.004Z,3.89
2023-01-17T10:25:52.398Z,3.90
2023-01-17T10:28:22.768Z,3.91
2023-01-17T10:30:51.837Z,3.97
2023-01-17T10:33:22.060Z,3.93
2023-01-17T10:35:56.877Z,3.95
2023-01-17T10:38:31.381Z,3.93
2023-01-17T10:41:04.984Z,4.00
2023-01-17T10:43:40.318Z,4.03
2023-01-17T10:46:15.761Z,4.09
2023-01-17T10:48:45.977Z,4.11
2023-01-17T10:51:23.076Z,4.13
2023-01-17T10:54:07.537Z,4.13
2023-01-17T10:56:37.954Z,4.11
2023-01-17T10:59:28.718Z,4.16
2023-01-17T11:01:56.518Z,4.19
2023-01-17T11:04:32.442Z,4.15
2023-01-17T11:07:18.392Z,4.16
2023-01-17T11:09:47.376Z,4.19
2023-01-17T11:12:23.843Z,4.18
2023-01-17T11:15:04.221Z,4.18
2023-01-17T11:17:33.264Z,4.19
2023-01-17T11:20:23.503Z,4.19
2023-01-17T11:23:04.194Z,4.18
2023-01-17T11:25:34.099Z,4.23
2023-01-17T11:28:06.448Z,4.25
2023-01-17T11:30:34.220Z,4.25
2023-01-17T11:33:04.221Z,4.27
2023-01-17T11:35:32.532Z,4.33
2023-01-17T11:38:07.080Z,4.33
2023-01-17T11:40:38.361Z,4.42
2023-01-17T11:43:22.643Z,4.46
2023-01-17T11:46:06.019Z,4.51
2023-01-17T11:48:37.105Z,4.53
2023-01-17T11:51:06.015Z,4.54
2023-01-17T11:53:35.170Z,4.55
2023-01-17T11:56:07.687Z,4.62
2023-01-17T11:58:39.359Z,4.65
2023-01-17T12:01:32.127Z,4.67
2023-01-17T12:04:20.321Z,4.73
2023-01-17T12:06:58.011Z,4.85
2023-01-17T12:09:31.474Z,4.94
2023-01-17T12:12:22.181Z,4.98
2023-01-17T12:15:00.696Z,5.05
2023-01-17T12:17:38.375Z,5.11
2023-01-17T12:20:12.684Z,5.15
2023-01-17T12:23:02.995Z,5.24
2023-01-17T12:25:54.507Z,5.33
2023-01-17T12:28:38.722Z,5.38
2023-01-17T12:31:15.089Z,5.34
2023-01-17T12:33:48.554Z,5.39
2023-01-17T12:36:29.856Z,5.47
2023-01-17T12:38:59.433Z,5.54
2023-01-17T12:41:31.285Z,5.47
2023-01-17T12:44:00.901Z,5.45
2023-01-17T12:46:32.372Z,5.43
2023-01-17T12:49:04.865Z,5.40
2023-01-17T12:51:37.198Z,5.40
2023-01-17T12:54:13.100Z,5.40
2023-01-17T12:56:44.233Z,5.37
2023-01-17T12:59:16.413Z,5.36
2023-01-17T13:01:57.633Z,5.30
2023-01-17T13:04:28.005Z,5.35
2023-01-17T13:07:05.763Z,5.37
2023-01-17T13:09:38.081Z,5.41
2023-01-17T13:12:07.964Z,5.43
2023-01-17T13:14:35.937Z,5.43
2023-01-17T13:17:14.132Z,5.44
2023-01-17T13:19:46.458Z,5.47
2023-01-17T13:22:17.890Z,5.45
2023-01-17T13:24:55.344Z,5.49
2023-01-17T13:27:34.359Z,5.51
2023-01-17T13:30:23.766Z,5.58
2023-01-17T13:33:16.221Z,5.58
2023-01-17T13:35:55.087Z,5.55
2023-01-17T13:38:55.059Z,5.59
2023-01-17T13:41:44.968Z,5.71
2023-01-17T13:44:24.664Z,5.76
2023-01-17T13:47:00.873Z,5.81
2023-01-17T13:49:53.892Z,5.86
2023-01-17T13:52:35.678Z,5.91
2023-01-17T13:55:04.537Z,5.93
2023-01-17T13:57:40.690Z,5.89
2023-01-17T14:00:59.236Z,5.91
2023-01-17T14:04:08.316Z,5.91
2023-01-17T14:06:40.628Z,5.89
2023-01-17T14:09:15.714Z,5.85
2023-01-17T14:11:58.748Z,5.84
2023-01-17T14:14:47.926Z,5.87
2023-01-17T14:17:52.761Z,5.88
2023-01-17T14:20:46.367Z,5.85
2023-01-17T14:23:50.026Z,5.82
2023-01-17T14:26:42.770Z,5.73
2023-01-17T14:29:48.081Z,5.71
2023-01-17T14:32:17.168Z,5.60
2023-01-17T14:34:46.228Z,5.59
2023-01-17T14:37:18.241Z,5.49
2023-01-17T14:39:47.151Z,5.53
2023-01-17T14:42:17.596Z,5.47
2023-01-17T14:44:49.748Z,5.42
2023-01-17T14:47:17.939Z,5.35
2023-01-17T14:49:45.738Z,5.36
2023-01-17T14:52:17.535Z,5.38
2023-01-17T14:54:49.425Z,5.35
2023-01-17T14:57:25.873Z,5.33
2023-01-17T14:59:53.621Z,5.24
2023-01-17T15:02:21.433Z,5.19
2023-01-17T15:04:55.040Z,5.17
2023-01-17T15:07:22.733Z,5.16
2023-01-17T15:09:50.458Z,5.17
2023-01-17T15:12:19.558Z,5.17
2023-01-17T15:14:49.187Z,5.15
2023-01-17T15:17:19.797Z,5.14
2023-01-17T15:19:50.061Z,5.15
2023-01-17T15:22:19.060Z,5.15
2023-01-17T15:24:47.745Z,5.15
2023-01-17T15:27:16.816Z,5.10
2023-01-17T15:29:45.422Z,5.09
2023-01-17T15:32:20.258Z,5.01
2023-01-17T15:36:25.063Z,5.05
2023-01-17T15:38:56.555Z,5.03
2023-01-17T15:41:26.265Z,5.02
2023-01-17T15:43:57.564Z,4.97
2023-01-17T15:46:29.927Z,4.95
2023-01-17T15:49:17.951Z,4.90
2023-01-17T15:51:52.937Z,4.86
2023-01-17T15:54:34.823Z,4.80
2023-01-17T15:57:07.038Z,4.78
2023-01-17T16:01:17.313Z,4.35
2023-01-17T16:03:54.073Z,4.10
2023-01-17T16:06:38.207Z,3.92
2023-01-17T16:09:20.685Z,3.76
2023-01-17T16:11:48.405Z,3.66
2023-01-17T16:14:16.886Z,3.57
2023-01-17T16:16:52.318Z,3.51
2023-01-17T16:19:21.423Z,3.40
2023-01-17T16:21:50.267Z,3.35
2023-01-17T16:24:18.597Z,3.30
2023-01-17T16:26:46.299Z,3.24
2023-01-17T16:29:13.927Z,3.19
2023-01-17T16:31:41.780Z,3.13
2023-01-17T16:34:13.075Z,3.11
2023-01-17T16:36:40.907Z,3.02
2023-01-17T16:39:08.822Z,2.99
2023-01-17T16:42:27.154Z,2.97
2023-01-17T16:44:56.306Z,2.93
2023-01-17T16:47:24.012Z,2.89
2023-01-17T16:49:51.749Z,2.86
2023-01-17T16:52:19.420Z,2.81
2023-01-17T16:54:47.031Z,2.76
2023-01-17T16:57:15.496Z,3.34
2023-01-17T16:59:50.590Z,3.47
2023-01-17T17:02:18.952Z,3.56
2023-01-17T17:04:46.595Z,3.02
2023-01-17T17:07:14.173Z,2.75
2023-01-17T17:09:42.002Z,2.56
2023-01-17T17:12:09.779Z,2.43
2023-01-17T17:14:37.647Z,2.31
2023-01-17T17:17:06.806Z,2.21
2023-01-17T17:19:34.563Z,2.14
2023-01-17T17:22:02.277Z,2.07
2023-01-17T17:24:29.893Z,2.02
2023-01-17T17:26:57.433Z,1.97
2023-01-17T17:29:24.987Z,1.93
2023-01-17T17:31:53.664Z,1.89
2023-01-17T17:34:23.234Z,1.86
2023-01-17T17:36:50.765Z,1.83
2023-01-17T17:39:18.273Z,1.80
2023-01-17T17:41:46.475Z,1.76
2023-01-17T17:44:14.077Z,1.74
2023-01-17T17:46:42.215Z,1.72
2023-01-17T17:49:09.921Z,1.68
2023-01-17T17:51:39.412Z,1.67
2023-01-17T17:54:07.547Z,1.67
2023-01-17T17:56:35.262Z,1.66
2023-01-17T17:59:03.270Z,1.65
2023-01-17T18:01:31.004Z,1.63
2023-01-17T18:03:59.934Z,1.61
2023-01-17T18:06:27.736Z,1.60
2023-01-17T18:08:56.613Z,1.58
2023-01-17T18:11:25.965Z,1.57
2023-01-17T18:13:54.892Z,1.56
2023-01-17T18:16:22.931Z,1.55
2023-01-17T18:18:51.637Z,1.53
2023-01-17T18:21:23.431Z,1.53
2023-01-17T18:23:51.458Z,1.51
2023-01-17T18:26:21.254Z,1.49
2023-01-17T18:28:48.958Z,1.48
2023-01-17T18:31:16.493Z,1.46
2023-01-17T18:33:44.172Z,1.46
2023-01-17T18:36:12.248Z,1.46
2023-01-17T18:38:40.512Z,1.44
2023-01-17T18:41:08.133Z,1.44
2023-01-17T18:43:37.051Z,1.43
2023-01-17T18:46:04.976Z,1.42
2023-01-17T18:48:32.566Z,1.41
2023-01-17T18:51:00.865Z,1.41
2023-01-17T18:53:28.666Z,1.39
2023-01-17T18:55:57.214Z,1.37
2023-01-17T18:58:25.034Z,1.37
2023-01-17T19:00:54.394Z,1.35
2023-01-17T19:03:23.485Z,1.34
2023-01-17T19:05:50.980Z,1.33
2023-01-17T19:08:18.681Z,1.32
2023-01-17T19:10:46.553Z,1.30
2023-01-17T19:13:14.025Z,1.30
2023-01-17T19:15:41.736Z,1.27
2023-01-17T19:18:10.601Z,1.25
2023-01-17T19:20:38.181Z,1.24
2023-01-17T19:23:06.020Z,1.24
2023-01-17T19:25:35.308Z,1.23
2023-01-17T19:28:02.971Z,1.21
2023-01-17T19:30:30.701Z,1.19
2023-01-17T19:32:58.262Z,1.17
2023-01-17T19:35:27.187Z,1.15
2023-01-17T19:37:55.872Z,1.13
2023-01-17T19:40:23.559Z,1.12
2023-01-17T19:42:51.079Z,1.10
2023-01-17T19:45:18.664Z,1.11
2023-01-17T19:47:46.182Z,1.10
2023-01-17T19:50:14.794Z,1.10
2023-01-17T19:52:43.662Z,1.08
2023-01-17T19:55:11.237Z,1.07
2023-01-17T19:57:40.510Z,1.05
2023-01-17T20:00:09.474Z,1.04
2023-01-17T20:02:38.272Z,1.03
2023-01-17T20:05:06.172Z,1.01
2023-01-17T20:07:34.006Z,0.99
2023-01-17T20:10:02.943Z,0.99
2023-01-17T20:12:31.461Z,0.99
2023-01-17T20:14:59.017Z,0.99
2023-01-17T20:17:26.501Z,0.98
2023-01-17T20:19:54.015Z,0.98
2023-01-17T20:22:21.803Z,0.96
2023-01-17T20:24:49.302Z,0.95
2023-01-17T20:27:19.019Z,0.93
2023-01-17T20:29:46.650Z,0.91
2023-01-17T20:32:14.161Z,0.90
2023-01-17T20:34:41.632Z,0.89
2023-01-17T20:37:09.204Z,0.87
2023-01-17T20:39:38.907Z,0.85
2023-01-17T20:42:06.493Z,0.83
2023-01-17T20:44:35.951Z,0.82
2023-01-17T20:47:03.450Z,0.80
2023-01-17T20:49:30.971Z,0.77
2023-01-17T20:52:00.041Z,0.75
2023-01-17T20:54:27.629Z,0.72
2023-01-17T20:56:55.444Z,0.70
2023-01-17T20:59:23.284Z,0.71
2023-01-17T21:01:52.302Z,0.70
2023-01-17T21:04:25.633Z,0.70
2023-01-17T21:06:53.586Z,0.72
2023-01-17T21:09:22.044Z,0.72
2023-01-17T21:11:49.560Z,0.72
2023-01-17T21:14:17.732Z,0.73
2023-01-17T21:16:45.282Z,0.73
2023-01-17T21:19:15.884Z,0.74
2023-01-17T21:21:43.327Z,0.74
2023-01-17T21:24:16.236Z,0.75
2023-01-17T21:26:45.483Z,0.74
2023-01-17T21:29:13.417Z,0.73
2023-01-17T21:31:42.620Z,0.72
2023-01-17T21:34:13.752Z,0.71
2023-01-17T21:36:43.114Z,0.70
2023-01-17T21:39:12.623Z,0.68
2023-01-17T21:41:41.068Z,0.68
2023-01-17T21:44:10.053Z,0.67
2023-01-17T21:46:38.559Z,0.65
2023-01-17T21:49:06.071Z,0.64
2023-01-17T21:51:59.484Z,0.64
2023-01-17T21:54:46.432Z,0.63
2023-01-17T21:57:31.303Z,0.62
2023-01-17T21:59:58.821Z,0.62
2023-01-17T22:02:26.403Z,0.60
2023-01-17T22:04:56.268Z,0.59
2023-01-17T22:07:25.153Z,0.58
2023-01-17T22:09:54.137Z,0.58
2023-01-17T22:12:21.627Z,0.55
2023-01-17T22:14:49.183Z,0.54
2023-01-17T22:17:16.674Z,0.54
2023-01-17T22:19:45.900Z,0.52
2023-01-17T22:22:13.397Z,0.51
2023-01-17T22:24:41.361Z,0.48
2023-01-17T22:27:10.725Z,0.47
2023-01-17T22:29:38.385Z,0.45
2023-01-17T22:32:05.961Z,0.44
2023-01-17T22:34:33.578Z,0.43
2023-01-17T22:37:02.425Z,0.42
2023-01-17T22:39:29.927Z,0.41
2023-01-17T22:41:57.536Z,0.40
2023-01-17T22:44:26.568Z,0.38
2023-01-17T22:46:54.150Z,0.36
2023-01-17T22:49:23.372Z,0.35
2023-01-17T22:51:51.104Z,0.34
2023-01-17T22:54:19.396Z,0.33
2023-01-17T22:56:46.952Z,0.31
2023-01-17T22:59:14.573Z,0.29
2023-01-17T23:01:43.472Z,0.28
2023-01-17T23:04:11.764Z,0.28
2023-01-17T23:06:39.836Z,0.26
2023-01-17T23:09:08.591Z,0.25
2023-01-17T23:11:43.562Z,0.24
2023-01-17T23:14:12.586Z,0.23
2023-01-17T23:16:58.137Z,0.22
2023-01-17T23:19:27.514Z,0.22
2023-01-17T23:22:13.938Z,0.22
2023-01-17T23:24:43.284Z,0.20
2023-01-17T23:27:29.348Z,0.21
2023-01-17T23:29:56.837Z,0.20
2023-01-17T23:32:24.417Z,0.20
2023-01-17T23:34:53.395Z,0.20
2023-01-17T23:37:20.849Z,0.20
2023-01-17T23:39:48.314Z,0.20
2023-01-17T23:42:33.696Z,0.18
2023-01-17T23:45:01.681Z,0.17
2023-01-17T23:47:29.185Z,0.16
2023-01-17T23:49:58.085Z,0.14
2023-01-17T23:52:25.596Z,0.14
2023-01-17T23:54:53.137Z,0.13
2023-01-17T23:57:20.673Z,0.12
2023-01-17T23:59:48.227Z,0.12
